Time;durP1;ratioP1;P1;durP2;ratioP2;P2;SDS_P1;SDS_P2;PMS_P1;PMS_P2;Temp;Humidity;BMP_temperature;BMP_pressure;BME280_temperature;BME280_humidity;BME280_pressure;Samples;Min_cycle;Max_cycle;Signal;HPM_P1;HPM_P2
2022/01/24 00:00:55;;;;;;;12.17;11.80;;;19.90;58.10;;;;;;5033269;28;20460;-49
2022/01/24 00:03:23;;;;;;;12.10;11.80;;;19.80;58.20;;;;;;5033180;28;20880;-47
2022/01/24 00:05:50;;;;;;;11.90;11.50;;;19.80;58.80;;;;;;5032933;28;20826;-46
2022/01/24 00:08:17;;;;;;;11.60;11.30;;;19.80;58.30;;;;;;5033128;28;20480;-49
2022/01/24 00:10:46;;;;;;;12.33;12.00;;;19.80;58.30;;;;;;5033168;28;20445;-47
2022/01/24 00:13:58;;;;;;;12.80;12.30;;;19.80;58.30;;;;;;5036312;28;20946;-49
2022/01/24 00:16:22;;;;;;;12.73;12.33;;;19.80;58.40;;;;;;5052409;28;20550;-49
2022/01/24 00:27:03;;;;;;;11.53;11.23;;;19.50;58.80;;;;;;5052368;28;20459;-52
2022/01/24 00:29:30;;;;;;;11.50;11.20;;;19.50;58.90;;;;;;5032742;28;20445;-46
2022/01/24 00:31:57;;;;;;;12.00;11.67;;;19.50;58.90;;;;;;5032603;28;20831;-47
2022/01/24 00:34:25;;;;;;;12.00;11.70;;;19.50;58.90;;;;;;5032662;28;20459;-50
2022/01/24 00:36:53;;;;;;;12.27;11.87;;;19.40;59.00;;;;;;5032198;28;20660;-46
2022/01/24 00:39:20;;;;;;;11.57;11.27;;;19.30;59.10;;;;;;5032388;28;20481;-53
2022/01/24 00:41:57;;;;;;;11.77;11.47;;;19.30;59.30;;;;;;5035235;28;20916;-46
2022/01/24 00:47:14;;;;;;;11.50;11.10;;;19.30;59.40;;;;;;5027026;28;20456;-47
2022/01/24 00:49:52;;;;;;;12.00;11.60;;;19.30;59.40;;;;;;5042469;28;20441;-50
2022/01/24 00:55:06;;;;;;;12.63;12.33;;;19.30;59.40;;;;;;5032310;28;20552;-50
2022/01/24 00:57:33;;;;;;;11.67;11.27;;;19.20;59.40;;;;;;5039567;28;20457;-48
2022/01/24 01:00:01;;;;;;;11.40;11.10;;;19.20;59.50;;;;;;5032161;28;20484;-47
2022/01/24 01:02:28;;;;;;;12.10;11.70;;;19.20;59.60;;;;;;5032147;28;20869;-49
2022/01/24 01:07:54;;;;;;;11.50;11.20;;;19.10;59.70;;;;;;5028179;28;20457;-51
2022/01/24 01:18:39;;;;;;;11.30;11.00;;;19.00;60.20;;;;;;5051602;28;20486;-49
2022/01/24 01:21:12;;;;;;;12.63;12.23;;;19.00;60.20;;;;;;5051763;28;20456;-46
2022/01/24 01:23:44;;;;;;;12.20;11.80;;;19.00;60.10;;;;;;5050019;28;20946;-47
2022/01/24 01:26:19;;;;;;;11.67;11.37;;;19.00;60.20;;;;;;5039011;28;20461;-49
2022/01/24 01:28:49;;;;;;;12.43;12.07;;;19.00;60.20;;;;;;5051085;28;20443;-46
2022/01/24 01:31:25;;;;;;;12.00;11.70;;;19.00;60.30;;;;;;5051492;28;20925;-49
2022/01/24 01:34:02;;;;;;;11.63;11.33;;;18.90;60.20;;;;;;5050984;28;20447;-50
2022/01/24 01:36:57;;;;;;;11.90;11.60;;;18.90;60.30;;;;;;5051249;28;20478;-47
2022/01/24 01:53:28;;;;;;;11.87;11.27;;;18.80;60.60;;;;;;5011905;28;20442;-47
2022/01/24 01:55:54;;;;;;;11.47;11.13;;;18.90;60.80;;;;;;4992452;28;20783;-48
2022/01/24 01:58:23;;;;;;;11.70;11.40;;;18.70;60.60;;;;;;4992055;28;20438;-47
2022/01/24 02:00:53;;;;;;;11.23;10.93;;;18.70;60.80;;;;;;4997136;28;20446;-47
2022/01/24 02:03:20;;;;;;;11.80;11.50;;;18.70;60.90;;;;;;5011615;28;20508;-45
2022/01/24 02:05:47;;;;;;;11.10;10.80;;;18.70;61.00;;;;;;5011807;28;20446;-46
2022/01/24 02:08:16;;;;;;;11.47;11.17;;;18.70;61.10;;;;;;5011848;28;20489;-48
2022/01/24 02:10:43;;;;;;;11.40;11.10;;;18.70;61.20;;;;;;5011055;28;20446;-46
2022/01/24 02:13:11;;;;;;;12.53;12.13;;;18.70;61.10;;;;;;5011810;28;20541;-46
2022/01/24 02:15:46;;;;;;;10.80;10.50;;;18.70;61.00;;;;;;5011328;28;20477;-46
2022/01/24 02:18:25;;;;;;;11.30;11.00;;;18.70;61.10;;;;;;5011595;28;20457;-46
2022/01/24 02:21:09;;;;;;;11.57;11.27;;;18.60;61.20;;;;;;5011691;28;20449;-48
2022/01/24 02:23:42;;;;;;;11.60;11.30;;;18.60;61.30;;;;;;5011658;28;20445;-47
2022/01/24 02:26:14;;;;;;;11.27;10.97;;;18.60;61.50;;;;;;5011392;28;20461;-47
2022/01/24 02:28:51;;;;;;;11.17;10.87;;;18.60;61.30;;;;;;5011145;28;20526;-46
2022/01/24 02:31:36;;;;;;;10.70;10.40;;;18.50;61.30;;;;;;5011337;28;20446;-47
2022/01/24 02:34:04;;;;;;;11.73;11.43;;;18.50;61.40;;;;;;5011532;28;20947;-46
2022/01/24 02:36:31;;;;;;;11.00;10.70;;;18.50;61.40;;;;;;5011176;28;20446;-47
2022/01/24 02:39:09;;;;;;;11.03;10.73;;;18.50;61.40;;;;;;5011080;28;20486;-48
2022/01/24 02:49:49;;;;;;;11.20;10.90;;;18.50;61.40;;;;;;5014560;28;21009;-46
2022/01/24 02:52:17;;;;;;;11.10;10.80;;;18.50;61.40;;;;;;5014949;28;20958;-46
2022/01/24 02:54:47;;;;;;;11.03;10.73;;;18.50;61.50;;;;;;5014774;28;20450;-48
2022/01/24 02:57:14;;;;;;;11.40;11.10;;;18.40;61.50;;;;;;5014537;28;20450;-47
2022/01/24 02:59:41;;;;;;;11.50;11.20;;;18.50;61.50;;;;;;5014593;28;20852;-48
2022/01/24 03:02:08;;;;;;;11.43;11.13;;;18.40;61.60;;;;;;5014505;28;20947;-46
2022/01/24 03:04:35;;;;;;;11.67;11.30;;;18.40;61.60;;;;;;5014480;28;20446;-46
2022/01/24 03:07:01;;;;;;;11.80;11.50;;;18.30;61.60;;;;;;5014040;28;20481;-46
2022/01/24 03:09:28;;;;;;;11.97;11.67;;;18.30;61.80;;;;;;5014535;28;20462;-48
2022/01/24 03:12:04;;;;;;;12.10;11.70;;;18.30;61.90;;;;;;5014613;28;20454;-48
2022/01/24 03:14:32;;;;;;;11.70;11.40;;;18.30;61.80;;;;;;5014206;28;20450;-46
2022/01/24 03:16:59;;;;;;;11.80;11.50;;;18.30;61.80;;;;;;5014341;28;20472;-48
2022/01/24 03:19:26;;;;;;;10.97;10.67;;;18.30;61.80;;;;;;5012815;28;21006;-47
2022/01/24 03:21:53;;;;;;;11.20;10.90;;;18.30;61.80;;;;;;5014219;28;20446;-47
2022/01/24 03:24:20;;;;;;;11.43;11.13;;;18.30;61.90;;;;;;5014123;28;20453;-48
2022/01/24 03:26:47;;;;;;;11.50;11.20;;;18.30;61.90;;;;;;5014173;28;20446;-47
2022/01/24 03:29:16;;;;;;;11.63;11.33;;;18.20;62.00;;;;;;5014121;28;20466;-48
2022/01/24 03:31:43;;;;;;;11.43;11.10;;;18.20;62.00;;;;;;5014306;28;20966;-47
2022/01/24 03:34:10;;;;;;;11.07;10.77;;;18.20;62.10;;;;;;5013986;28;20500;-46
2022/01/24 03:36:37;;;;;;;11.67;11.37;;;18.30;62.00;;;;;;5013251;28;20442;-47
2022/01/24 03:39:04;;;;;;;11.40;11.10;;;18.30;62.00;;;;;;5014098;28;20482;-47
2022/01/24 03:41:31;;;;;;;11.83;11.53;;;18.20;62.00;;;;;;5014040;28;20792;-47
2022/01/24 03:44:04;;;;;;;12.10;11.80;;;18.10;62.20;;;;;;5013942;28;20450;-49
2022/01/24 03:46:47;;;;;;;11.60;11.30;;;18.20;62.30;;;;;;5014055;28;20815;-46
2022/01/24 03:49:45;;;;;;;11.40;11.10;;;18.20;62.20;;;;;;5013682;28;20841;-47
2022/01/24 03:52:09;;;;;;;12.00;11.70;;;18.20;62.20;;;;;;5013591;28;20541;-48
2022/01/24 03:54:36;;;;;;;11.50;11.20;;;18.20;62.10;;;;;;5013716;28;20450;-46
2022/01/24 03:57:03;;;;;;;11.60;11.20;;;18.20;62.20;;;;;;5013598;28;20449;-47
2022/01/24 03:59:30;;;;;;;11.10;10.80;;;18.20;62.00;;;;;;5013564;28;20493;-47
2022/01/24 04:01:59;;;;;;;11.50;11.20;;;18.20;61.90;;;;;;5013499;28;20445;-50
2022/01/24 04:04:26;;;;;;;11.63;11.33;;;18.20;61.90;;;;;;5013253;28;20978;-47
2022/01/24 04:06:53;;;;;;;12.10;11.80;;;18.20;61.90;;;;;;5013290;28;20963;-49
2022/01/24 04:09:20;;;;;;;11.70;11.20;;;18.20;62.00;;;;;;5013731;28;20470;-48
2022/01/24 04:11:51;;;;;;;11.47;11.17;;;18.20;61.90;;;;;;5013462;28;20469;-48
2022/01/24 04:14:30;;;;;;;11.33;11.03;;;18.20;61.80;;;;;;5013078;28;20450;-47
2022/01/24 04:17:19;;;;;;;12.13;11.83;;;18.30;61.80;;;;;;5013364;28;20473;-46
2022/01/24 04:22:35;;;;;;;11.40;11.10;;;18.20;61.60;;;;;;5013624;28;20457;-46
2022/01/24 04:25:04;;;;;;;11.50;11.20;;;18.20;61.70;;;;;;5013336;28;20485;-48
2022/01/24 04:27:32;;;;;;;11.73;11.43;;;18.20;61.70;;;;;;5012463;28;20816;-49
2022/01/24 04:29:59;;;;;;;11.70;11.40;;;18.20;61.50;;;;;;5012800;28;20477;-46
2022/01/24 04:32:27;;;;;;;11.40;11.10;;;18.10;61.70;;;;;;5013361;28;20445;-47
2022/01/24 04:34:54;;;;;;;11.17;10.87;;;18.20;61.90;;;;;;5013054;28;20446;-49
2022/01/24 04:37:20;;;;;;;11.90;11.60;;;18.10;61.80;;;;;;5012895;28;20450;-49
2022/01/24 04:39:48;;;;;;;12.40;12.10;;;18.10;61.80;;;;;;5012895;28;20486;-49
2022/01/24 04:42:23;;;;;;;11.60;11.30;;;18.10;61.90;;;;;;5012740;28;20548;-46
2022/01/24 04:45:07;;;;;;;11.73;11.43;;;18.10;61.90;;;;;;5012930;28;20476;-49
2022/01/24 04:47:49;;;;;;;11.70;11.40;;;18.10;61.80;;;;;;5012422;28;20445;-48
2022/01/24 04:50:40;;;;;;;11.90;11.60;;;18.10;61.80;;;;;;5012289;28;20618;-46
2022/01/24 04:53:13;;;;;;;11.83;11.53;;;18.00;61.80;;;;;;5012891;28;20446;-46
2022/01/24 04:55:40;;;;;;;11.70;11.40;;;18.00;61.80;;;;;;5012343;28;20500;-48
2022/01/24 04:58:06;;;;;;;12.30;12.00;;;18.00;62.10;;;;;;5012327;28;20469;-47
2022/01/24 05:00:33;;;;;;;12.00;11.70;;;18.00;61.90;;;;;;5012390;28;20489;-46
2022/01/24 05:03:01;;;;;;;12.90;12.50;;;17.90;62.00;;;;;;5012570;28;20457;-46
2022/01/24 05:05:29;;;;;;;12.97;12.67;;;18.00;62.30;;;;;;5012106;28;20450;-46
2022/01/24 05:07:56;;;;;;;13.40;13.00;;;17.90;62.20;;;;;;5012365;28;20449;-46
2022/01/24 05:10:30;;;;;;;13.00;12.60;;;17.90;62.50;;;;;;5012316;28;20469;-47
2022/01/24 05:21:39;;;;;;;13.00;12.70;;;17.90;62.40;;;;;;5012284;28;20523;-49
2022/01/24 05:24:05;;;;;;;12.70;12.40;;;17.90;62.40;;;;;;5012107;28;20454;-50
2022/01/24 05:26:32;;;;;;;12.90;12.60;;;17.90;62.40;;;;;;5011919;28;20815;-49
2022/01/24 05:28:59;;;;;;;13.40;13.00;;;17.80;62.40;;;;;;5012406;28;20466;-47
2022/01/24 05:31:25;;;;;;;12.73;12.43;;;17.80;62.50;;;;;;5012125;28;20442;-48
2022/01/24 05:33:54;;;;;;;12.20;11.90;;;17.80;62.50;;;;;;5011595;28;20452;-48
2022/01/24 05:36:20;;;;;;;12.60;12.30;;;17.90;62.40;;;;;;5012166;28;20446;-51
2022/01/24 05:38:47;;;;;;;13.43;12.93;;;17.80;62.40;;;;;;5012068;28;20478;-47
2022/01/24 05:41:14;;;;;;;13.30;12.90;;;17.90;62.50;;;;;;5011643;28;20501;-49
2022/01/24 05:43:40;;;;;;;13.07;12.70;;;17.70;62.60;;;;;;5012101;28;20446;-47
2022/01/24 05:46:07;;;;;;;13.03;12.67;;;17.70;62.80;;;;;;5011740;28;20445;-49
2022/01/24 05:48:34;;;;;;;12.90;12.50;;;17.70;62.80;;;;;;5011494;28;20473;-48
2022/01/24 05:51:02;;;;;;;12.77;12.47;;;17.80;63.70;;;;;;5011153;28;20445;-47
2022/01/24 05:53:29;;;;;;;13.37;13.00;;;19.00;63.30;;;;;;5011072;28;20828;-50
2022/01/24 05:55:56;;;;;;;13.07;12.67;;;19.80;59.90;;;;;;5010435;28;20449;-49
2022/01/24 05:58:23;;;;;;;12.93;12.63;;;20.20;58.20;;;;;;5010937;28;20449;-50
2022/01/24 06:00:49;;;;;;;12.23;11.93;;;20.50;57.10;;;;;;5011164;28;20817;-50
2022/01/24 06:03:16;;;;;;;13.27;12.87;;;20.50;56.30;;;;;;5011762;28;20810;-48
2022/01/24 06:05:43;;;;;;;12.30;12.00;;;20.60;55.90;;;;;;5011871;28;20461;-54
2022/01/24 06:08:11;;;;;;;13.27;12.87;;;20.70;55.60;;;;;;5011596;28;20446;-54
2022/01/24 06:10:39;;;;;;;12.40;12.10;;;20.80;55.30;;;;;;5011732;28;20445;-56
2022/01/24 06:13:07;;;;;;;13.30;12.90;;;20.70;55.10;;;;;;5011374;28;20535;-56
2022/01/24 06:15:33;;;;;;;13.10;12.80;;;20.80;55.00;;;;;;5011442;28;20508;-56
2022/01/24 06:18:00;;;;;;;13.40;13.00;;;20.70;54.80;;;;;;5012145;28;20446;-51
2022/01/24 06:20:27;;;;;;;13.40;13.00;;;20.70;54.80;;;;;;5015446;28;20530;-49
2022/01/24 06:22:53;;;;;;;13.00;12.70;;;20.70;54.70;;;;;;5015240;28;20449;-54
2022/01/24 06:25:24;;;;;;;13.87;13.47;;;20.70;54.50;;;;;;5015371;28;20442;-55
2022/01/24 06:27:51;;;;;;;13.10;12.70;;;20.70;54.50;;;;;;5015072;28;20454;-52
2022/01/24 06:30:17;;;;;;;13.23;12.87;;;20.60;54.40;;;;;;5014943;28;20823;-55
2022/01/24 06:32:44;;;;;;;13.30;12.90;;;20.60;54.50;;;;;;5015062;28;20461;-56
2022/01/24 06:35:13;;;;;;;13.57;13.17;;;20.50;54.40;;;;;;5015007;28;20447;-56
2022/01/24 06:37:41;;;;;;;13.30;13.00;;;20.50;54.60;;;;;;5014812;28;20446;-54
2022/01/24 06:40:11;;;;;;;13.77;13.30;;;20.40;54.60;;;;;;5014772;28;20485;-54
2022/01/24 06:42:39;;;;;;;13.27;12.90;;;20.30;54.90;;;;;;5014798;28;20820;-49
2022/01/24 06:45:07;;;;;;;15.03;14.33;;;20.30;55.90;;;;;;5015118;28;20453;-51
2022/01/24 06:47:34;;;;;;;13.63;12.93;;;20.30;57.00;;;;;;5014635;28;20453;-54
2022/01/24 06:50:01;;;;;;;15.47;14.30;;;20.30;58.50;;;;;;5014688;28;20475;-54
2022/01/24 06:52:27;;;;;;;14.73;13.80;;;20.30;59.70;;;;;;5014541;28;20457;-51
2022/01/24 06:54:54;;;;;;;15.47;13.97;;;20.30;61.50;;;;;;5014737;28;20445;-57
2022/01/24 06:57:21;;;;;;;16.20;14.97;;;20.40;63.40;;;;;;5013930;28;20827;-55
2022/01/24 06:59:49;;;;;;;15.03;14.10;;;20.40;65.40;;;;;;5014638;28;20462;-50
2022/01/24 07:02:17;;;;;;;16.27;14.07;;;20.40;67.20;;;;;;5014711;28;20812;-48
2022/01/24 07:04:44;;;;;;;22.50;16.13;;;20.40;69.10;;;;;;5014735;28;20452;-56
2022/01/24 07:07:12;;;;;;;15.00;13.67;;;20.40;74.40;;;;;;5014003;28;20480;-52
2022/01/24 07:09:40;;;;;;;14.30;13.17;;;20.30;76.50;;;;;;5005278;28;20467;-64
2022/01/24 07:12:08;;;;;;;14.63;13.67;;;20.30;79.40;;;;;;5010427;28;20457;-47
2022/01/24 07:14:35;;;;;;;13.43;12.43;;;20.30;80.80;;;;;;5014467;28;20450;-47
2022/01/24 07:17:28;;;;;;;15.23;13.77;;;20.20;80.30;;;;;;5013904;28;20446;-48
2022/01/24 07:19:55;;;;;;;15.47;13.87;;;20.30;81.20;;;;;;5014172;28;20904;-48
2022/01/24 07:22:22;;;;;;;14.73;13.30;;;20.20;81.10;;;;;;5014147;28;20446;-49
2022/01/24 07:24:48;;;;;;;14.57;13.30;;;20.10;80.80;;;;;;5014168;28;20446;-49
2022/01/24 07:27:15;;;;;;;15.97;14.87;;;20.10;80.40;;;;;;5013901;28;20454;-48
2022/01/24 07:29:42;;;;;;;14.67;13.37;;;20.00;79.80;;;;;;5013688;28;20470;-49
2022/01/24 07:32:12;;;;;;;14.33;13.40;;;19.90;79.20;;;;;;5012876;28;20802;-47
2022/01/24 07:34:38;;;;;;;12.93;12.00;;;19.90;79.50;;;;;;5014009;28;20454;-47
2022/01/24 07:37:05;;;;;;;14.93;13.57;;;19.80;78.10;;;;;;5013764;28;20804;-47
2022/01/24 07:39:32;;;;;;;13.67;12.67;;;19.80;77.80;;;;;;5013880;28;20497;-49
2022/01/24 07:42:04;;;;;;;15.67;14.50;;;19.70;78.30;;;;;;5013494;28;20482;-46
2022/01/24 07:44:31;;;;;;;15.43;14.30;;;19.60;77.30;;;;;;5013801;28;20454;-48
2022/01/24 07:46:57;;;;;;;17.30;15.03;;;19.60;77.10;;;;;;5013508;28;20928;-47
2022/01/24 07:49:25;;;;;;;15.20;13.97;;;19.60;76.80;;;;;;5014061;28;20481;-50
2022/01/24 07:51:52;;;;;;;14.20;13.10;;;19.60;76.30;;;;;;5013529;28;20446;-50
2022/01/24 07:54:19;;;;;;;13.70;12.70;;;19.50;75.80;;;;;;5013565;28;20469;-47
2022/01/24 07:56:45;;;;;;;14.10;13.10;;;19.40;75.70;;;;;;5013331;28;20450;-48
2022/01/24 07:59:12;;;;;;;14.23;13.27;;;19.40;75.60;;;;;;5013367;28;20477;-48
2022/01/24 08:01:41;;;;;;;16.20;13.07;;;19.30;75.10;;;;;;5013359;28;20481;-47
2022/01/24 08:04:08;;;;;;;10.10;9.70;;;19.30;74.90;;;;;;5013487;28;20450;-47
2022/01/24 08:06:36;;;;;;;11.53;10.83;;;19.30;74.60;;;;;;5013062;28;20446;-47
2022/01/24 08:09:05;;;;;;;11.90;11.30;;;19.30;74.20;;;;;;5013211;28;20477;-47
2022/01/24 08:11:32;;;;;;;13.40;12.87;;;19.20;73.80;;;;;;5013251;28;20458;-49
2022/01/24 08:13:59;;;;;;;13.93;13.10;;;19.20;73.70;;;;;;5013304;28;20537;-48
2022/01/24 08:16:26;;;;;;;14.87;14.07;;;19.20;73.30;;;;;;5012964;28;20454;-47
2022/01/24 08:18:54;;;;;;;14.43;13.53;;;19.10;73.10;;;;;;5013116;28;20466;-47
2022/01/24 08:21:21;;;;;;;13.33;12.53;;;19.10;73.00;;;;;;5012944;28;20556;-47
2022/01/24 08:23:49;;;;;;;13.70;13.00;;;19.10;72.70;;;;;;5012959;28;20472;-47
2022/01/24 08:26:16;;;;;;;13.27;12.67;;;19.10;72.40;;;;;;5012797;28;20450;-47
2022/01/24 08:28:43;;;;;;;13.40;12.60;;;19.10;72.30;;;;;;5012933;28;20478;-47
2022/01/24 08:31:10;;;;;;;13.43;12.70;;;19.00;72.00;;;;;;5012950;28;20450;-49
2022/01/24 08:33:37;;;;;;;13.37;12.57;;;19.00;72.00;;;;;;5012965;28;20827;-47
2022/01/24 08:36:05;;;;;;;12.80;12.10;;;18.90;71.80;;;;;;5012558;28;20453;-47
2022/01/24 08:38:34;;;;;;;13.50;12.90;;;18.90;71.90;;;;;;5012791;28;20450;-47
2022/01/24 08:41:08;;;;;;;13.13;12.40;;;18.90;71.90;;;;;;5012043;28;21006;-46
2022/01/24 08:43:39;;;;;;;13.37;12.57;;;18.80;71.90;;;;;;5012731;28;20478;-47
2022/01/24 08:46:07;;;;;;;13.63;12.93;;;18.80;71.70;;;;;;5012520;28;20446;-47
2022/01/24 08:48:34;;;;;;;12.87;12.33;;;18.80;71.60;;;;;;5012398;28;20485;-47
2022/01/24 08:51:00;;;;;;;12.80;12.30;;;18.80;71.70;;;;;;5012598;28;20454;-48
2022/01/24 08:53:30;;;;;;;14.20;13.37;;;18.70;71.60;;;;;;5012551;28;20780;-49
2022/01/24 08:55:58;;;;;;;14.13;13.43;;;18.70;71.70;;;;;;5012398;28;20481;-47
2022/01/24 08:58:26;;;;;;;14.40;13.70;;;18.70;71.70;;;;;;5012595;28;20446;-48
2022/01/24 09:00:54;;;;;;;13.00;12.50;;;18.60;71.50;;;;;;5012256;28;20568;-47
2022/01/24 09:03:21;;;;;;;13.03;12.43;;;18.60;71.50;;;;;;5012349;28;20804;-47
2022/01/24 09:05:49;;;;;;;12.20;11.70;;;18.60;71.40;;;;;;5012117;28;20829;-47
2022/01/24 09:08:16;;;;;;;13.07;12.47;;;18.60;71.30;;;;;;5012202;28;20871;-47
2022/01/24 09:10:46;;;;;;;12.13;11.73;;;18.70;71.00;;;;;;5012413;28;20625;-47
2022/01/24 09:13:13;;;;;;;12.33;11.80;;;18.70;70.90;;;;;;5012452;28;20485;-47
2022/01/24 09:15:41;;;;;;;12.90;12.10;;;18.60;70.90;;;;;;5011986;28;20940;-48
2022/01/24 09:18:09;;;;;;;11.93;11.53;;;18.60;70.90;;;;;;5012151;28;20449;-47
2022/01/24 09:20:38;;;;;;;13.30;12.60;;;18.60;70.70;;;;;;5011896;28;20470;-47
2022/01/24 09:23:05;;;;;;;13.37;12.97;;;18.70;70.40;;;;;;5012151;28;20483;-48
2022/01/24 09:25:32;;;;;;;13.43;12.80;;;18.70;70.30;;;;;;5011965;28;20972;-48
2022/01/24 09:27:58;;;;;;;12.50;11.60;;;18.70;70.00;;;;;;5012015;28;20442;-47
2022/01/24 09:30:26;;;;;;;13.17;12.63;;;18.70;69.70;;;;;;5011892;28;20472;-49
2022/01/24 09:32:54;;;;;;;12.27;11.67;;;18.80;69.50;;;;;;5011987;28;20450;-47
2022/01/24 09:35:21;;;;;;;13.13;12.63;;;18.80;69.00;;;;;;5011770;28;20462;-49
2022/01/24 09:37:49;;;;;;;13.10;12.23;;;18.80;68.60;;;;;;5011874;28;20453;-46
2022/01/24 09:40:17;;;;;;;13.70;13.10;;;18.90;68.40;;;;;;5011891;28;20821;-49
2022/01/24 09:42:46;;;;;;;13.03;12.53;;;18.90;68.00;;;;;;5011838;28;20485;-47
2022/01/24 09:45:15;;;;;;;13.53;12.83;;;18.90;67.70;;;;;;5011712;28;20450;-47
2022/01/24 09:47:42;;;;;;;12.57;12.17;;;19.00;68.00;;;;;;5011873;28;20824;-50
2022/01/24 09:50:12;;;;;;;12.27;11.87;;;19.00;66.90;;;;;;5011562;28;20477;-47
2022/01/24 09:52:41;;;;;;;12.43;11.93;;;19.00;66.40;;;;;;5013921;28;20441;-47
2022/01/24 09:55:09;;;;;;;13.33;12.83;;;19.00;66.30;;;;;;5015854;28;20453;-46
2022/01/24 09:57:36;;;;;;;13.43;12.90;;;19.10;66.10;;;;;;5015802;28;20802;-49
2022/01/24 10:00:04;;;;;;;12.90;12.50;;;19.10;65.70;;;;;;5015718;28;20497;-55
2022/01/24 10:02:30;;;;;;;13.10;12.60;;;19.10;65.50;;;;;;5015547;28;20500;-50
2022/01/24 10:05:15;;;;;;;13.37;12.77;;;19.10;65.20;;;;;;5015638;28;20453;-47
2022/01/24 10:07:42;;;;;;;13.17;12.77;;;19.00;65.00;;;;;;5015533;28;20451;-49
2022/01/24 10:10:09;;;;;;;13.97;13.47;;;19.00;65.00;;;;;;5015525;28;20469;-47
2022/01/24 10:18:02;;;;;;;11.60;11.30;;;19.00;64.50;;;;;;5015438;28;20484;-49
2022/01/24 10:20:32;;;;;;;11.97;11.47;;;19.00;64.50;;;;;;5015265;28;20831;-47
2022/01/24 10:23:06;;;;;;;12.37;11.97;;;18.90;64.30;;;;;;5015291;28;20482;-47
2022/01/24 10:25:48;;;;;;;11.87;11.47;;;18.90;64.30;;;;;;5015112;28;20457;-48
2022/01/24 10:28:23;;;;;;;11.93;11.53;;;18.90;64.30;;;;;;5015035;28;20450;-47
2022/01/24 10:31:01;;;;;;;12.73;12.33;;;18.90;64.20;;;;;;5015173;28;20445;-47
2022/01/24 10:33:28;;;;;;;12.50;12.10;;;18.90;64.30;;;;;;5015198;28;20445;-48
2022/01/24 10:35:56;;;;;;;12.10;11.70;;;18.90;64.20;;;;;;5014854;28;20453;-49
2022/01/24 10:38:29;;;;;;;12.37;12.00;;;18.90;63.80;;;;;;5014878;28;20454;-48
2022/01/24 10:41:08;;;;;;;11.80;11.50;;;19.00;63.50;;;;;;5014948;28;20446;-47
2022/01/24 10:43:37;;;;;;;11.63;11.33;;;19.00;63.20;;;;;;5014959;28;20450;-49
2022/01/24 10:46:04;;;;;;;11.67;11.37;;;19.00;63.00;;;;;;5014630;28;20536;-47
2022/01/24 10:48:33;;;;;;;12.67;12.27;;;19.00;62.90;;;;;;5014620;28;20453;-52
2022/01/24 10:51:07;;;;;;;12.43;12.03;;;19.00;62.70;;;;;;5014783;28;20983;-53
2022/01/24 10:53:40;;;;;;;12.87;12.47;;;19.10;62.60;;;;;;5014751;28;20446;-48
2022/01/24 10:56:33;;;;;;;12.60;12.20;;;19.10;62.50;;;;;;5014804;28;20453;-48
2022/01/24 10:59:16;;;;;;;12.50;12.10;;;19.20;62.30;;;;;;5014626;28;20470;-53
2022/01/24 11:01:45;;;;;;;12.40;12.10;;;19.60;61.50;;;;;;5014498;28;20485;-51
2022/01/24 11:04:14;;;;;;;11.57;11.27;;;19.90;60.20;;;;;;5013861;28;20736;-52
2022/01/24 11:06:44;;;;;;;12.20;11.80;;;20.00;59.30;;;;;;5014238;28;20888;-48
2022/01/24 11:09:15;;;;;;;12.00;11.60;;;20.10;58.80;;;;;;5014300;28;20549;-50
2022/01/24 11:11:43;;;;;;;12.67;12.37;;;20.20;58.40;;;;;;5014440;28;20943;-50
2022/01/24 11:14:13;;;;;;;11.90;11.60;;;20.30;58.00;;;;;;5014272;28;20456;-51
2022/01/24 11:16:40;;;;;;;12.40;12.10;;;20.40;57.60;;;;;;5014191;28;20544;-48
2022/01/24 11:19:14;;;;;;;13.00;12.60;;;20.40;57.20;;;;;;5014262;28;20462;-53
2022/01/24 11:21:45;;;;;;;12.70;12.40;;;20.40;56.90;;;;;;5014193;28;20493;-48
2022/01/24 11:24:17;;;;;;;12.90;12.40;;;20.50;56.80;;;;;;5014107;28;20465;-50
2022/01/24 11:26:44;;;;;;;12.53;12.10;;;20.60;56.50;;;;;;5013935;28;20997;-50
2022/01/24 11:29:12;;;;;;;12.60;12.30;;;20.60;56.10;;;;;;5014161;28;20817;-51
2022/01/24 11:31:44;;;;;;;11.60;11.30;;;20.60;55.80;;;;;;5013843;28;20438;-50
2022/01/24 11:34:19;;;;;;;12.60;12.20;;;20.70;55.70;;;;;;5014199;28;20450;-50
2022/01/24 11:36:47;;;;;;;13.03;12.63;;;20.60;55.40;;;;;;5013781;28;20441;-48
2022/01/24 11:39:22;;;;;;;13.13;12.63;;;20.60;55.40;;;;;;5013801;28;20478;-48
2022/01/24 11:41:49;;;;;;;13.00;12.50;;;20.50;55.40;;;;;;5013756;28;20482;-50
2022/01/24 11:44:18;;;;;;;12.33;12.00;;;20.40;55.40;;;;;;5013578;28;20816;-48
2022/01/24 11:46:47;;;;;;;12.60;12.30;;;20.30;55.50;;;;;;5013448;28;20469;-51
2022/01/24 11:49:17;;;;;;;12.27;11.97;;;20.20;56.10;;;;;;5013450;28;20892;-52
2022/01/24 11:51:49;;;;;;;11.33;11.03;;;20.10;55.70;;;;;;5013786;28;20944;-49
2022/01/24 11:54:32;;;;;;;12.37;12.07;;;20.10;56.00;;;;;;5013715;28;20446;-49
2022/01/24 11:57:22;;;;;;;13.03;12.63;;;19.90;56.10;;;;;;5013577;28;20446;-50
2022/01/24 11:59:50;;;;;;;11.33;11.03;;;19.80;56.40;;;;;;5013451;28;20469;-54
2022/01/24 12:02:23;;;;;;;12.07;11.67;;;19.70;56.50;;;;;;5013783;28;20486;-49
2022/01/24 12:04:52;;;;;;;11.93;11.53;;;19.70;56.80;;;;;;5012998;28;20804;-50
2022/01/24 12:07:22;;;;;;;11.60;11.30;;;19.60;56.90;;;;;;4994337;28;20799;-51
2022/01/24 12:09:50;;;;;;;12.30;12.00;;;19.50;57.00;;;;;;5013140;28;20477;-50
2022/01/24 12:12:41;;;;;;;11.40;11.10;;;19.50;57.50;;;;;;5013420;28;20449;-51
2022/01/24 12:15:10;;;;;;;11.87;11.37;;;19.40;58.20;;;;;;5012589;28;20859;-50
2022/01/24 12:17:47;;;;;;;11.30;11.00;;;19.40;59.10;;;;;;5012728;28;20494;-49
2022/01/24 12:20:51;;;;;;;12.03;11.67;;;19.30;59.90;;;;;;5012831;28;21191;-53
2022/01/24 12:23:35;;;;;;;11.03;10.73;;;19.50;61.00;;;;;;4933406;29;20484;-51
2022/01/24 12:26:06;;;;;;;11.60;11.30;;;19.50;60.70;;;;;;5007158;28;20975;-51
2022/01/24 12:28:35;;;;;;;11.70;11.40;;;19.40;60.80;;;;;;5012635;28;20474;-53
2022/01/24 12:31:05;;;;;;;12.10;11.80;;;19.30;61.10;;;;;;5012423;28;20940;-50
2022/01/24 12:33:34;;;;;;;12.20;11.90;;;19.30;61.80;;;;;;5012790;28;20461;-53
2022/01/24 12:36:02;;;;;;;11.50;11.20;;;19.20;61.90;;;;;;5012685;28;20446;-52
2022/01/24 12:38:42;;;;;;;11.60;11.20;;;19.20;62.30;;;;;;5012848;28;20442;-50
2022/01/24 12:41:16;;;;;;;11.93;11.63;;;19.10;62.50;;;;;;5012349;28;20442;-50
2022/01/24 12:43:54;;;;;;;12.33;11.90;;;19.20;63.00;;;;;;5012150;28;21154;-48
2022/01/24 12:46:22;;;;;;;12.00;11.60;;;19.10;62.90;;;;;;5012505;28;20458;-53
2022/01/24 12:48:49;;;;;;;12.03;11.63;;;19.10;63.40;;;;;;5012213;28;21007;-50
2022/01/24 12:51:21;;;;;;;11.90;11.60;;;19.10;63.50;;;;;;5012636;28;20442;-51
2022/01/24 12:53:50;;;;;;;11.63;11.33;;;19.10;63.00;;;;;;5012644;28;20442;-48
2022/01/24 12:56:18;;;;;;;11.30;11.00;;;19.20;62.60;;;;;;5011890;28;20450;-51
2022/01/24 12:58:49;;;;;;;12.00;11.63;;;19.50;62.00;;;;;;5011430;28;20474;-51
2022/01/24 13:01:24;;;;;;;11.50;11.20;;;19.70;61.20;;;;;;5012463;28;20446;-52
2022/01/24 13:03:55;;;;;;;12.00;11.70;;;19.70;60.80;;;;;;5010435;28;20480;-52
2022/01/24 13:06:22;;;;;;;11.03;10.67;;;19.80;60.60;;;;;;5011967;28;20450;-50
2022/01/24 13:08:55;;;;;;;11.80;11.50;;;19.80;60.10;;;;;;5012096;28;20458;-53
2022/01/24 13:11:22;;;;;;;11.73;11.43;;;19.80;59.80;;;;;;5012328;28;20807;-53
2022/01/24 13:14:00;;;;;;;12.30;11.90;;;19.80;59.60;;;;;;5012178;28;20811;-49
2022/01/24 13:22:22;;;;;;;10.63;10.40;;;19.70;59.20;;;;;;5012277;28;20477;-49
2022/01/24 13:25:08;;;;;;;9.90;9.70;;;19.70;59.20;;;;;;5012207;28;20970;-54
2022/01/24 13:27:40;;;;;;;10.80;10.50;;;19.60;59.10;;;;;;5011682;28;20438;-50
2022/01/24 13:30:10;;;;;;;9.60;9.40;;;19.60;59.10;;;;;;5011957;28;20472;-50
2022/01/24 13:32:46;;;;;;;10.30;10.10;;;19.50;59.10;;;;;;5011970;28;20934;-50
2022/01/24 13:35:19;;;;;;;10.40;10.10;;;19.50;59.20;;;;;;5012012;28;20446;-50
2022/01/24 13:37:47;;;;;;;11.07;10.77;;;19.40;59.10;;;;;;5011957;28;20530;-48
2022/01/24 13:40:31;;;;;;;11.20;11.00;;;19.40;59.20;;;;;;5011852;28;20820;-52
2022/01/24 13:42:58;;;;;;;11.00;10.73;;;19.30;59.20;;;;;;5011859;28;20477;-50
2022/01/24 13:45:25;;;;;;;11.37;11.17;;;19.30;59.30;;;;;;5011695;28;20446;-49
2022/01/24 13:47:57;;;;;;;12.23;11.93;;;19.20;59.40;;;;;;5011986;28;21067;-51
2022/01/24 13:50:24;;;;;;;11.73;11.43;;;19.10;59.40;;;;;;5012238;28;20478;-45
2022/01/24 13:52:50;;;;;;;12.00;11.60;;;19.10;59.60;;;;;;5011773;28;20469;-46